createdAt,value
2022-08-03T00:00:49.197Z,0.90
2022-08-03T00:03:19.346Z,1.05
2022-08-03T00:06:04.215Z,0.73
2022-08-03T00:08:40.122Z,1.02
2022-08-03T00:11:10.494Z,0.75
2022-08-03T00:13:40.547Z,0.82
2022-08-03T00:16:11.038Z,1.55
2022-08-03T00:18:41.361Z,2.65
2022-08-03T00:21:11.574Z,2.63
2022-08-03T00:23:52.139Z,3.47
2022-08-03T00:26:22.994Z,1.80
2022-08-03T00:28:53.032Z,6.18
2022-08-03T00:31:40.273Z,5.38
2022-08-03T00:34:13.054Z,2.60
2022-08-03T00:36:43.492Z,5.32
2022-08-03T00:39:13.490Z,7.85
2022-08-03T00:41:43.539Z,7.70
2022-08-03T00:44:13.533Z,7.75
2022-08-03T00:46:43.604Z,7.38
2022-08-03T00:49:13.639Z,9.57
2022-08-03T00:51:43.807Z,7.45
2022-08-03T00:54:14.618Z,7.03
2022-08-03T00:56:59.664Z,6.13
2022-08-03T00:59:31.351Z,6.70
2022-08-03T01:02:01.408Z,6.88
2022-08-03T01:04:31.456Z,10.07
2022-08-03T01:07:10.973Z,11.27
2022-08-03T01:09:47.223Z,11.82
2022-08-03T01:12:17.567Z,6.10
2022-08-03T01:15:17.003Z,12.05
2022-08-03T01:17:53.995Z,6.22
2022-08-03T01:20:26.645Z,8.50
2022-08-03T01:23:15.419Z,9.15
2022-08-03T01:26:08.558Z,10.35
2022-08-03T01:28:47.447Z,4.90
2022-08-03T01:31:22.095Z,8.88
2022-08-03T01:33:55.916Z,6.88
2022-08-03T01:36:28.760Z,4.30
2022-08-03T01:39:00.700Z,4.93
2022-08-03T01:41:35.076Z,6.28
2022-08-03T01:44:29.827Z,3.50
2022-08-03T01:46:59.787Z,2.00
2022-08-03T01:49:31.703Z,1.83
2022-08-03T01:52:05.393Z,3.28
2022-08-03T01:54:42.256Z,1.27
2022-08-03T01:57:13.184Z,1.25
2022-08-03T01:59:44.918Z,1.40
2022-08-03T02:02:33.522Z,1.05
2022-08-03T02:05:05.977Z,1.13
2022-08-03T02:07:42.064Z,0.80
2022-08-03T02:10:13.291Z,0.85
2022-08-03T02:12:46.056Z,1.23
2022-08-03T02:15:16.873Z,0.90
2022-08-03T02:17:47.867Z,0.95
2022-08-03T02:20:18.481Z,0.90
2022-08-03T02:22:48.562Z,1.00
2022-08-03T02:25:18.571Z,1.25
2022-08-03T02:27:53.271Z,1.52
2022-08-03T02:30:24.526Z,1.02
2022-08-03T02:32:56.095Z,1.00
2022-08-03T02:35:27.526Z,0.65
2022-08-03T02:37:59.912Z,1.15
2022-08-03T02:40:31.140Z,1.48
2022-08-03T02:43:04.085Z,1.10
2022-08-03T02:45:36.170Z,1.30
2022-08-03T02:48:07.091Z,1.13
2022-08-03T02:50:37.168Z,1.00
2022-08-03T02:53:08.059Z,0.98
2022-08-03T02:55:45.633Z,1.25
2022-08-03T02:58:17.736Z,1.00
2022-08-03T03:00:49.130Z,1.48
2022-08-03T03:03:19.879Z,1.10
2022-08-03T03:05:55.111Z,1.27
2022-08-03T03:08:28.794Z,1.60
2022-08-03T03:11:00.332Z,1.10
2022-08-03T03:13:31.209Z,0.90
2022-08-03T03:16:02.742Z,0.85
2022-08-03T03:18:33.755Z,1.10
2022-08-03T03:21:04.219Z,0.88
2022-08-03T03:23:38.587Z,1.30
2022-08-03T03:26:09.225Z,1.23
2022-08-03T03:28:39.607Z,1.20
2022-08-03T03:31:09.880Z,1.08
2022-08-03T03:33:40.056Z,1.10
2022-08-03T03:36:10.336Z,1.00
2022-08-03T03:38:40.409Z,1.00
2022-08-03T03:41:10.560Z,0.85
2022-08-03T03:43:40.746Z,1.23
2022-08-03T03:46:13.105Z,1.05
2022-08-03T03:48:43.070Z,1.02
2022-08-03T03:51:13.184Z,1.20
2022-08-03T03:54:03.510Z,1.20
2022-08-03T03:56:33.765Z,0.95
2022-08-03T03:59:03.848Z,1.20
2022-08-03T04:01:33.915Z,1.20
2022-08-03T04:04:23.830Z,0.90
2022-08-03T04:07:12.512Z,1.13
2022-08-03T04:10:08.902Z,0.90
2022-08-03T04:12:50.459Z,1.10
2022-08-03T04:15:22.500Z,1.30
2022-08-03T04:17:54.144Z,0.93
2022-08-03T04:20:24.362Z,1.20
2022-08-03T04:22:54.840Z,1.10
2022-08-03T04:25:26.289Z,1.08
2022-08-03T04:27:59.515Z,1.25
2022-08-03T04:30:50.976Z,1.27
2022-08-03T04:33:23.607Z,1.20
2022-08-03T04:36:02.603Z,1.00
2022-08-03T04:38:36.923Z,1.00
2022-08-03T04:41:07.714Z,0.95
2022-08-03T04:43:40.885Z,1.10
2022-08-03T04:46:11.354Z,1.30
2022-08-03T04:48:44.780Z,1.08
2022-08-03T04:51:15.066Z,1.40
2022-08-03T04:53:45.120Z,0.98
2022-08-03T04:56:15.075Z,1.20
2022-08-03T04:58:45.504Z,1.40
2022-08-03T05:01:16.648Z,1.20
2022-08-03T05:03:47.191Z,1.20
2022-08-03T05:06:17.210Z,1.25
2022-08-03T05:08:48.824Z,1.20
2022-08-03T05:11:21.031Z,1.15
2022-08-03T05:13:51.073Z,1.60
2022-08-03T05:16:21.122Z,1.40
2022-08-03T05:18:51.324Z,1.35
2022-08-03T05:21:21.364Z,1.83
2022-08-03T05:23:51.454Z,1.63
2022-08-03T05:26:21.508Z,1.45
2022-08-03T05:28:52.793Z,2.05
2022-08-03T05:31:22.775Z,2.40
2022-08-03T05:33:52.954Z,3.30
2022-08-03T05:36:23.049Z,4.55
2022-08-03T05:38:53.041Z,5.18
2022-08-03T05:41:37.036Z,6.47
2022-08-03T05:44:07.583Z,5.45
2022-08-03T05:46:37.577Z,7.60
2022-08-03T05:49:07.628Z,11.25
2022-08-03T05:51:37.754Z,9.73
2022-08-03T05:54:07.809Z,9.93
2022-08-03T05:56:37.889Z,14.80
2022-08-03T05:59:35.746Z,18.02
2022-08-03T06:01:58.196Z,17.42
2022-08-03T06:04:28.256Z,18.17
2022-08-03T06:06:59.202Z,20.52
2022-08-03T06:09:31.912Z,19.98
2022-08-03T06:12:20.387Z,22.92
2022-08-03T06:14:50.541Z,23.75
2022-08-03T06:17:20.642Z,30.17
2022-08-03T06:19:52.327Z,30.27
2022-08-03T06:22:23.405Z,30.80
2022-08-03T06:24:58.658Z,39.47
2022-08-03T06:27:36.548Z,44.20
2022-08-03T06:30:08.800Z,32.38
2022-08-03T06:32:41.025Z,41.33
2022-08-03T06:35:11.123Z,41.53
2022-08-03T06:37:50.457Z,46.53
2022-08-03T06:40:24.633Z,36.78
2022-08-03T06:42:55.048Z,38.15
2022-08-03T06:45:26.171Z,44.92
2022-08-03T06:48:04.110Z,47.60
2022-08-03T06:50:34.592Z,44.25
2022-08-03T06:53:05.041Z,54.70
2022-08-03T06:55:35.449Z,49.95
2022-08-03T06:58:12.468Z,62.10
2022-08-03T07:00:42.499Z,55.70
2022-08-03T07:03:12.553Z,54.55
2022-08-03T07:05:43.190Z,57.15
2022-08-03T07:08:13.683Z,59.55
2022-08-03T07:10:44.855Z,68.63
2022-08-03T07:13:14.894Z,68.15
2022-08-03T07:15:55.490Z,69.50
2022-08-03T07:18:29.710Z,77.35
2022-08-03T07:21:00.104Z,75.57
2022-08-03T07:23:30.137Z,81.72
2022-08-03T07:26:00.166Z,79.47
2022-08-03T07:28:30.332Z,82.57
2022-08-03T07:31:00.320Z,76.18
2022-08-03T07:33:30.344Z,73.82
2022-08-03T07:36:00.314Z,80.60
2022-08-03T07:38:30.586Z,85.32
2022-08-03T07:41:00.551Z,90.82
2022-08-03T07:43:30.628Z,79.55
2022-08-03T07:46:00.702Z,83.75
2022-08-03T07:48:30.876Z,81.07
2022-08-03T07:51:01.104Z,85.10
2022-08-03T07:53:31.129Z,83.13
2022-08-03T07:56:01.202Z,75.63
2022-08-03T07:58:35.499Z,84.55
2022-08-03T08:01:05.881Z,88.60
2022-08-03T08:03:49.877Z,84.05
2022-08-03T08:06:25.643Z,92.43
2022-08-03T08:09:01.882Z,93.97
2022-08-03T08:11:34.806Z,85.67
2022-08-03T08:14:07.613Z,112.70
2022-08-03T08:16:37.695Z,103.82
2022-08-03T08:19:08.443Z,114.15
2022-08-03T08:21:52.928Z,139.18
2022-08-03T08:24:30.870Z,132.35
2022-08-03T08:27:01.679Z,123.25
2022-08-03T08:29:31.739Z,124.53
2022-08-03T08:32:01.717Z,119.97
2022-08-03T08:34:32.006Z,130.68
2022-08-03T08:37:02.748Z,132.10
2022-08-03T08:39:32.856Z,141.27
2022-08-03T08:42:07.844Z,135.20
2022-08-03T08:44:37.899Z,128.35
2022-08-03T08:47:08.301Z,134.65
2022-08-03T08:49:39.728Z,127.53
2022-08-03T08:52:29.527Z,138.05
2022-08-03T08:55:02.146Z,133.90
2022-08-03T08:57:43.409Z,131.55
2022-08-03T09:00:16.739Z,135.63
2022-08-03T09:02:47.401Z,133.98
2022-08-03T09:05:18.629Z,125.95
2022-08-03T09:07:51.794Z,128.93
2022-08-03T09:10:23.009Z,126.25
2022-08-03T09:12:53.422Z,105.72
2022-08-03T09:15:24.986Z,121.00
2022-08-03T09:17:56.985Z,94.45
2022-08-03T09:20:29.100Z,101.22
2022-08-03T09:22:59.376Z,91.45
2022-08-03T09:25:30.348Z,71.57
2022-08-03T09:28:10.364Z,128.98
2022-08-03T09:30:41.722Z,95.75
2022-08-03T09:33:12.951Z,81.93
2022-08-03T09:35:53.629Z,82.43
2022-08-03T09:38:26.455Z,82.20
2022-08-03T09:41:00.006Z,96.72
2022-08-03T09:43:45.802Z,101.20
2022-08-03T09:46:15.731Z,136.88
2022-08-03T09:48:45.808Z,100.60
2022-08-03T09:51:32.882Z,113.90
2022-08-03T09:54:16.290Z,133.25
2022-08-03T09:56:48.875Z,127.43
2022-08-03T09:59:29.144Z,137.13
2022-08-03T10:02:02.266Z,140.27
2022-08-03T10:04:32.381Z,120.55
2022-08-03T10:07:07.283Z,137.85
2022-08-03T10:09:37.909Z,130.13
2022-08-03T10:12:11.600Z,183.77
2022-08-03T10:14:42.471Z,199.57
2022-08-03T10:17:12.872Z,235.02
2022-08-03T10:19:43.107Z,235.60
2022-08-03T10:22:16.054Z,263.58
2022-08-03T10:24:52.691Z,233.32
2022-08-03T10:27:23.836Z,268.55
2022-08-03T10:29:55.968Z,267.73
2022-08-03T10:32:30.813Z,257.80
2022-08-03T10:35:19.086Z,252.13
2022-08-03T10:37:58.707Z,254.73
2022-08-03T10:40:48.209Z,261.20
2022-08-03T10:43:27.763Z,299.17
2022-08-03T10:45:58.981Z,321.42
2022-08-03T10:48:29.843Z,426.85
2022-08-03T10:51:00.016Z,444.33
2022-08-03T10:53:39.038Z,495.30
2022-08-03T10:56:49.451Z,447.13
2022-08-03T10:59:27.555Z,481.65
2022-08-03T11:02:00.569Z,472.35
2022-08-03T11:04:31.061Z,533.72
2022-08-03T11:07:17.000Z,508.35
2022-08-03T11:09:48.757Z,598.13
2022-08-03T11:12:31.521Z,569.55
2022-08-03T11:15:07.158Z,639.85
2022-08-03T11:17:45.857Z,623.17
2022-08-03T11:20:17.025Z,630.95
2022-08-03T11:22:54.693Z,655.05
2022-08-03T11:25:53.128Z,674.50
2022-08-03T11:28:28.774Z,702.88
2022-08-03T11:31:46.697Z,707.55
2022-08-03T11:34:12.641Z,681.58
2022-08-03T11:37:01.006Z,762.00
2022-08-03T11:39:50.208Z,734.00
2022-08-03T11:42:23.327Z,469.08
2022-08-03T11:44:56.083Z,678.38
2022-08-03T11:47:27.508Z,707.45
2022-08-03T11:49:59.307Z,705.97
2022-08-03T11:52:36.150Z,695.92
2022-08-03T11:55:10.176Z,630.08
2022-08-03T11:59:01.616Z,531.70
2022-08-03T12:00:32.220Z,543.22
2022-08-03T12:03:07.658Z,414.85
2022-08-03T12:05:52.007Z,454.33
2022-08-03T12:08:28.506Z,271.85
2022-08-03T12:11:00.098Z,446.75
2022-08-03T12:14:44.211Z,462.13
2022-08-03T12:16:49.848Z,330.50
2022-08-03T12:19:20.018Z,302.92
2022-08-03T12:21:57.109Z,283.65
2022-08-03T12:24:40.066Z,263.70
2022-08-03T12:27:10.187Z,217.63
2022-08-03T12:29:40.278Z,166.65
2022-08-03T12:32:14.960Z,165.40
2022-08-03T12:34:47.344Z,102.00
2022-08-03T12:37:22.577Z,63.67
2022-08-03T12:40:02.686Z,73.03
2022-08-03T12:42:36.563Z,48.40
2022-08-03T12:45:20.425Z,59.50
2022-08-03T12:47:57.572Z,39.92
2022-08-03T12:50:31.928Z,23.15
2022-08-03T12:53:03.308Z,39.10
2022-08-03T12:55:57.097Z,22.52
2022-08-03T12:58:34.571Z,19.92
2022-08-03T13:01:10.168Z,37.83
2022-08-03T13:03:42.724Z,11.07
2022-08-03T13:06:17.075Z,14.65
2022-08-03T13:08:48.445Z,9.57
2022-08-03T13:11:23.313Z,9.82
2022-08-03T13:14:16.657Z,7.72
2022-08-03T13:16:50.041Z,11.80
2022-08-03T13:19:20.416Z,19.13
2022-08-03T13:22:01.904Z,12.57
2022-08-03T13:24:35.650Z,1.75
2022-08-03T13:28:02.022Z,8.52
2022-08-03T13:29:58.195Z,17.10
2022-08-03T13:32:28.308Z,8.10
2022-08-03T13:35:05.481Z,2.53
2022-08-03T13:37:35.871Z,2.45
2022-08-03T13:40:07.301Z,2.60
2022-08-03T13:42:38.884Z,2.80
2022-08-03T13:45:10.687Z,4.45
2022-08-03T13:47:40.904Z,1.48
2022-08-03T13:50:10.877Z,19.63
2022-08-03T13:52:41.029Z,1.50
2022-08-03T13:55:11.250Z,1.25
2022-08-03T13:58:19.051Z,3.35
2022-08-03T14:00:31.367Z,1.42
2022-08-03T14:03:16.586Z,1.10
2022-08-03T14:05:47.744Z,1.75
2022-08-03T14:08:18.401Z,1.50
2022-08-03T14:10:48.510Z,1.65
2022-08-03T14:13:18.548Z,1.73
2022-08-03T14:15:49.842Z,16.00
2022-08-03T14:18:28.564Z,1.80
2022-08-03T14:21:06.974Z,9.85
2022-08-03T14:23:38.232Z,1.27
2022-08-03T14:26:09.150Z,4.53
2022-08-03T14:28:39.270Z,2.13
2022-08-03T14:32:10.107Z,1.60
2022-08-03T14:33:59.934Z,2.13
2022-08-03T14:36:30.104Z,1.70
2022-08-03T14:39:01.465Z,5.70
2022-08-03T14:41:31.908Z,7.15
2022-08-03T14:44:02.582Z,2.25
2022-08-03T14:46:32.947Z,2.20
2022-08-03T14:50:37.749Z,1.80
2022-08-03T14:51:54.016Z,1.40
2022-08-03T14:54:24.338Z,2.67
2022-08-03T14:56:58.673Z,2.40
2022-08-03T14:59:28.871Z,1.87
2022-08-03T15:02:23.941Z,2.13
2022-08-03T15:04:57.538Z,2.42
2022-08-03T15:07:29.137Z,3.65
2022-08-03T15:10:02.445Z,2.42
2022-08-03T15:12:34.109Z,3.50
2022-08-03T15:15:06.379Z,4.80
2022-08-03T15:17:36.744Z,2.53
2022-08-03T15:20:17.193Z,5.05
2022-08-03T15:22:54.494Z,2.10
2022-08-03T15:26:27.851Z,2.45
2022-08-03T15:28:14.862Z,2.78
2022-08-03T15:30:44.879Z,1.90
2022-08-03T15:33:14.934Z,2.53
2022-08-03T15:35:46.591Z,3.72
2022-08-03T15:38:16.721Z,4.47
2022-08-03T15:40:46.849Z,3.58
2022-08-03T15:43:16.897Z,3.08
2022-08-03T15:45:46.978Z,2.90
2022-08-03T15:48:17.295Z,5.47
2022-08-03T15:50:48.218Z,3.53
2022-08-03T15:53:18.221Z,3.28
2022-08-03T15:55:48.512Z,3.78
2022-08-03T15:59:04.957Z,3.65
2022-08-03T16:01:08.964Z,4.00
2022-08-03T16:03:39.249Z,2.90
2022-08-03T16:06:09.440Z,3.40
2022-08-03T16:08:39.572Z,4.28
2022-08-03T16:11:09.861Z,3.30
2022-08-03T16:14:13.120Z,2.85
2022-08-03T16:16:29.897Z,3.60
2022-08-03T16:18:59.978Z,3.90
2022-08-03T16:21:48.069Z,3.70
2022-08-03T16:24:25.209Z,2.75
2022-08-03T16:27:00.527Z,2.05
2022-08-03T16:29:30.972Z,1.80
2022-08-03T16:32:09.387Z,1.77
2022-08-03T16:34:39.688Z,1.80
2022-08-03T16:37:35.736Z,2.40
2022-08-03T16:40:00.405Z,2.28
2022-08-03T16:42:30.426Z,2.38
2022-08-03T16:45:00.476Z,2.30
2022-08-03T16:47:30.469Z,1.73
2022-08-03T16:50:00.893Z,2.58
2022-08-03T16:52:30.876Z,2.08
2022-08-03T16:55:03.792Z,1.83
2022-08-03T16:57:58.555Z,2.00
2022-08-03T17:00:33.327Z,2.50
2022-08-03T17:03:12.770Z,1.73
2022-08-03T17:05:50.141Z,2.05
2022-08-03T17:08:26.772Z,1.67
2022-08-03T17:10:57.662Z,2.83
2022-08-03T17:13:39.994Z,2.13
2022-08-03T17:16:12.201Z,2.28
2022-08-03T17:21:20.260Z,3.00
2022-08-03T17:23:57.599Z,2.72
2022-08-03T17:26:30.685Z,2.42
2022-08-03T17:29:12.873Z,1.95
2022-08-03T17:31:48.821Z,4.30
2022-08-03T17:34:20.243Z,5.93
2022-08-03T17:37:06.085Z,5.70
2022-08-03T17:39:57.532Z,5.28
2022-08-03T17:42:29.969Z,4.00
2022-08-03T17:45:03.951Z,4.65
2022-08-03T17:50:24.108Z,3.95
2022-08-03T17:56:04.904Z,4.40
2022-08-03T17:58:52.504Z,2.60
2022-08-03T18:02:18.556Z,2.92
2022-08-03T18:05:03.333Z,2.20
2022-08-03T18:07:59.171Z,2.53
2022-08-03T18:10:35.004Z,3.05
2022-08-03T18:15:43.984Z,2.45
2022-08-03T18:18:14.771Z,2.38
2022-08-03T18:20:48.508Z,2.00
2022-08-03T18:23:36.213Z,1.90
2022-08-03T18:26:12.592Z,1.80
2022-08-03T18:28:44.259Z,1.75
2022-08-03T18:31:33.229Z,1.88
2022-08-03T18:34:20.331Z,2.10
2022-08-03T18:36:56.189Z,2.40
2022-08-03T18:39:27.458Z,2.08
2022-08-03T18:42:01.019Z,2.05
2022-08-03T18:44:45.686Z,2.10
2022-08-03T18:50:39.056Z,1.80
2022-08-03T18:53:19.500Z,1.70
2022-08-03T18:56:02.129Z,1.63
2022-08-03T18:58:55.796Z,1.73
2022-08-03T19:01:59.860Z,1.73
2022-08-03T19:04:33.617Z,1.60
2022-08-03T19:07:07.943Z,1.73
2022-08-03T19:09:41.209Z,1.55
2022-08-03T19:12:30.602Z,1.58
2022-08-03T19:15:03.146Z,1.80
2022-08-03T19:17:36.132Z,1.98
2022-08-03T19:20:10.352Z,2.00
2022-08-03T19:22:40.539Z,1.92
2022-08-03T19:25:16.878Z,1.88
2022-08-03T19:27:48.385Z,1.75
2022-08-03T19:30:38.854Z,1.63
2022-08-03T19:33:10.443Z,2.00
2022-08-03T19:35:55.216Z,1.48
2022-08-03T19:38:29.004Z,1.50
2022-08-03T19:41:02.315Z,1.70
2022-08-03T19:43:53.275Z,1.50
2022-08-03T19:46:30.298Z,1.45
2022-08-03T19:49:10.734Z,1.45
2022-08-03T19:52:01.194Z,1.90
2022-08-03T19:54:45.887Z,1.45
2022-08-03T19:57:24.696Z,1.58
2022-08-03T19:59:55.430Z,1.70
2022-08-03T20:02:27.793Z,1.85
2022-08-03T20:05:00.582Z,1.65
2022-08-03T20:07:32.978Z,1.63
2022-08-03T20:10:04.840Z,1.70
2022-08-03T20:12:39.030Z,1.48
2022-08-03T20:15:10.733Z,1.52
2022-08-03T20:17:54.617Z,1.45
2022-08-03T20:20:30.109Z,1.25
2022-08-03T20:23:01.774Z,1.38
2022-08-03T20:25:38.217Z,1.45
2022-08-03T20:28:14.302Z,1.80
2022-08-03T20:30:47.187Z,1.38
2022-08-03T20:33:19.035Z,1.60
2022-08-03T20:35:50.003Z,1.50
2022-08-03T20:38:20.164Z,1.77
2022-08-03T20:40:59.032Z,1.60
2022-08-03T20:43:29.406Z,1.70
2022-08-03T20:46:30.833Z,1.67
2022-08-03T20:48:49.811Z,1.70
2022-08-03T20:51:49.179Z,1.30
2022-08-03T20:54:22.682Z,1.38
2022-08-03T20:57:04.370Z,1.50
2022-08-03T20:59:50.383Z,1.50
2022-08-03T21:02:28.787Z,1.05
2022-08-03T21:05:03.574Z,1.88
2022-08-03T21:07:45.598Z,1.50
2022-08-03T21:10:35.794Z,1.90
2022-08-03T21:12:55.594Z,4.40
2022-08-03T21:13:09.823Z,1.88
2022-08-03T21:16:06.823Z,1.90
2022-08-03T21:18:43.498Z,1.45
2022-08-03T21:21:14.708Z,1.50
2022-08-03T21:23:48.161Z,1.55
2022-08-03T21:26:20.652Z,1.40
2022-08-03T21:28:51.624Z,1.48
2022-08-03T21:31:25.080Z,1.60
2022-08-03T21:33:57.031Z,1.63
2022-08-03T21:36:28.110Z,1.50
2022-08-03T21:38:58.825Z,1.48
2022-08-03T21:41:30.187Z,1.65
2022-08-03T21:44:01.305Z,1.85
2022-08-03T21:46:35.607Z,2.13
2022-08-03T21:50:05.805Z,2.00
2022-08-03T21:51:58.717Z,1.60
2022-08-03T21:54:35.157Z,1.52
2022-08-03T21:57:06.026Z,1.88
2022-08-03T21:59:38.235Z,1.70
2022-08-03T22:02:11.459Z,1.67
2022-08-03T22:04:56.395Z,1.67
2022-08-03T22:07:27.850Z,2.30
2022-08-03T22:09:58.935Z,2.10
2022-08-03T22:12:29.599Z,1.80
2022-08-03T22:15:01.994Z,1.70
2022-08-03T22:17:55.958Z,2.25
2022-08-03T22:20:23.663Z,1.80
2022-08-03T22:22:55.789Z,1.88
2022-08-03T22:25:29.507Z,2.10
2022-08-03T22:28:02.239Z,2.28
2022-08-03T22:30:33.422Z,1.80
2022-08-03T22:33:04.751Z,1.55
2022-08-03T22:35:47.517Z,1.90
2022-08-03T22:38:18.907Z,2.10
2022-08-03T22:40:51.142Z,1.98
2022-08-03T22:43:25.371Z,1.80
2022-08-03T22:46:09.742Z,1.50
2022-08-03T22:48:42.591Z,1.70
2022-08-03T22:51:12.763Z,1.90
2022-08-03T22:53:45.065Z,1.73
2022-08-03T22:56:15.188Z,1.70
2022-08-03T22:58:45.244Z,2.17
2022-08-03T23:01:18.908Z,1.70
2022-08-03T23:03:59.830Z,2.05
2022-08-03T23:06:38.421Z,1.80
2022-08-03T23:09:09.997Z,2.15
2022-08-03T23:11:46.026Z,1.77
2022-08-03T23:14:18.803Z,1.88
2022-08-03T23:16:50.285Z,1.88
2022-08-03T23:19:25.341Z,1.90
2022-08-03T23:22:03.279Z,1.70
2022-08-03T23:24:36.260Z,1.90
2022-08-03T23:27:07.304Z,1.80
2022-08-03T23:29:38.143Z,1.80
2022-08-03T23:32:08.653Z,1.90
2022-08-03T23:34:57.558Z,1.90
2022-08-03T23:37:27.713Z,1.90
2022-08-03T23:39:58.724Z,1.95
2022-08-03T23:42:29.209Z,1.98
2022-08-03T23:45:06.316Z,1.90
2022-08-03T23:47:47.428Z,1.83
2022-08-03T23:50:17.977Z,1.90
2022-08-03T23:53:00.114Z,2.00
2022-08-03T23:55:35.955Z,2.03
2022-08-03T23:58:18.051Z,2.05
